Latest Weather Observations for Kilmore Gap

IDV60801

Issued at 2:34 am EST Sunday 20 August 2017 (issued every 30 minutes, with the page automatically refreshed every 10 minutes)

About weather observations | Map of weather stations | Latest weather observations for VIC | Other Formats
Station Details ID: 088162 Name: KILMORE GAP Lat: -37.38 Lon: 144.97 Height: 527.8 m
Data from the previous 72 hours. | See also: Recent months at Kilmore Gap
Date/Time
EST
Temp
°C
App
Temp
°C
Dew
Point
°C
Rel
Hum
%
Delta-T
°C
Wind Press
QNH
hPa
Press
MSL
hPa
Rain since
9am
mm
Dir  Spd
km/h
Gust
km/h
Spd
kts
Gust
kts
20/02:30am 3.1 -1.0 2.1 93 0.4 SW 13 19 7 10 1025.3 1026.1 1.8
20/02:00am 3.2 -0.5 2.2 93 0.4 SSW 11 17 6 9 1025.1 1025.9 1.8
20/01:30am 3.0 -1.4 2.6 97 0.2 SW 15 20 8 11 1025.4 1026.2 1.8
20/01:00am 2.5 -2.4 2.2 98 0.1 SW 17 20 9 11 1025.8 1026.6 1.8
20/12:30am 2.6 -1.9 2.0 96 0.2 SW 15 17 8 9 1026.0 1026.8 1.8
20/12:09am 3.0 -1.5 2.3 95 0.3 SW 15 19 8 10 1026.4 1027.3 1.8
20/12:00am 3.1 -1.4 2.4 95 0.3 SW 15 19 8 10 1026.4 1027.3 1.8
 
Date/Time
EST
Temp
°C
App
Temp
°C
Dew
Point
°C
Rel
Hum
%
Delta-T
°C
Wind Press
QNH
hPa
Press
MSL
hPa
Rain since
9am
mm
Dir  Spd
km/h
Gust
km/h
Spd
kts
Gust
kts
19/11:30pm 2.5 -2.1 1.5 93 0.4 SSE 15 19 8 10 1026.1 1027.0 1.8
19/11:16pm 3.3 -0.8 2.3 93 0.4 S 13 17 7 9 1026.2 1027.1 1.8
19/11:02pm 3.6 -0.9 2.4 92 0.5 SSW 15 20 8 11 1026.4 1027.3 1.8
19/11:00pm 3.6 -0.9 2.4 92 0.5 SSW 15 20 8 11 1026.4 1027.3 1.8
19/10:30pm 3.2 -1.7 2.0 92 0.5 SW 17 20 9 11 1026.6 1027.4 1.8
19/10:00pm 3.0 -1.9 1.7 91 0.5 SW 17 20 9 11 1026.3 1027.2 1.8
19/09:30pm 3.2 -1.5 1.1 86 0.8 SW 15 20 8 11 1026.2 1027.1 1.8
19/09:00pm 3.7 -1.3 1.4 85 0.9 S 17 26 9 14 1026.0 1026.8 1.8
19/08:30pm 3.8 -1.3 1.0 82 1.1 SSW 17 22 9 12 1025.8 1026.6 1.8
19/08:00pm 3.9 -1.6 0.9 81 1.2 S 19 26 10 14 1025.8 1026.6 1.8
19/07:30pm 3.9 -1.7 1.1 82 1.1 S 20 26 11 14 1025.8 1026.6 1.8
19/07:00pm 4.0 -2.4 0.9 80 1.2 S 24 32 13 17 1025.9 1026.7 1.8
19/06:30pm 4.4 -0.6 1.4 81 1.2 S 17 22 9 12 1026.0 1026.8 1.8
19/06:00pm 4.2 -1.1 1.6 83 1.1 S 19 24 10 13 1025.9 1026.7 1.8
19/05:30pm 4.7 -0.8 1.6 80 1.3 S 20 28 11 15 1025.7 1026.5 1.8
19/05:00pm 5.2 -1.1 1.7 78 1.4 S 24 30 13 16 1025.4 1026.2 1.8
19/04:30pm 6.1 0.3 2.2 76 1.6 S 22 32 12 17 1025.2 1026.0 1.8
19/04:00pm 5.7 -1.5 2.9 82 1.2 S 30 41 16 22 1025.3 1026.1 1.8
19/03:51pm 5.8 -1.1 2.4 79 1.4 S 28 46 15 25 1025.2 1026.0 1.8
19/03:30pm 5.8 -1.1 2.4 79 1.4 S 28 39 15 21 1025.1 1025.9 1.8
19/03:00pm 6.0 0.7 3.0 81 1.3 SSW 20 30 11 16 1024.9 1025.7 1.8
19/02:30pm 5.6 -0.2 4.6 93 0.4 SW 24 33 13 18 1025.1 1025.9 1.8
19/02:00pm 6.4 0.3 2.9 78 1.5 S 24 37 13 20 1025.1 1025.9 1.8
19/01:46pm 6.0 -1.7 2.3 77 1.6 S 32 46 17 25 1025.0 1025.8 1.8
19/01:30pm 6.0 -0.7 3.7 85 1.0 S 28 41 15 22 1025.1 1025.9 1.8
19/01:02pm 6.2 0.9 5.2 93 0.5 S 22 33 12 18 1025.0 1025.8 1.8
19/01:00pm 6.0 0.7 5.0 93 0.4 S 22 33 12 18 1025.0 1025.8 1.8
19/12:31pm 4.6 0.2 4.5 99 0.0 SSW 17 26 9 14 1025.2 1026.0 1.8
19/12:30pm 4.4 -0.5 4.3 99 0.0 SSW 19 26 10 14 1025.2 1026.0 1.8
19/12:24pm 4.1 -0.8 4.0 99 0.0 SSW 19 32 10 17 1025.1 1025.9 1.8
19/12:10pm 3.4 -2.6 3.1 98 0.1 SSW 24 39 13 21 1025.2 1026.0 1.4
19/12:02pm 3.5 -4.4 2.5 93 0.4 S 33 57 18 31 1025.2 1026.0 1.2
19/12:00pm 3.7 -4.2 2.4 91 0.5 S 33 57 18 31 1025.1 1025.9 1.0
19/11:56am 5.6 -2.0 2.6 81 1.3 S 32 57 17 31 1024.9 1025.7 0.8
19/11:36am 6.2 0.0 4.4 88 0.8 S 26 35 14 19 1025.0 1025.8 0.8
19/11:30am 5.9 -0.3 4.4 90 0.7 S 26 35 14 19 1025.1 1025.9 0.8
19/11:00am 5.0 -0.8 4.6 97 0.2 S 24 35 13 19 1025.2 1026.0 0.8
19/10:30am 4.5 -0.3 4.4 99 0.0 S 19 32 10 17 1025.2 1026.0 0.8
19/10:08am 4.3 -0.6 4.2 99 0.0 S 19 32 10 17 1025.0 1025.8 0.8
19/10:00am 3.6 -1.6 3.5 99 0.0 SSW 20 32 11 17 1025.0 1025.8 0.8
19/09:51am 2.9 -2.8 2.8 99 0.0 SSW 22 35 12 19 1025.0 1025.8 0.6
19/09:30am 3.9 -1.3 3.8 99 0.0 SSW 20 26 11 14 1024.7 1025.5 0.0
19/09:00am 2.8 -2.9 2.7 99 0.0 SW 22 32 12 17 1024.5 1025.2 2.6
19/08:30am 2.5 -3.3 2.4 99 0.0 SW 22 32 12 17 1023.9 1024.7 2.6
19/08:00am 2.3 -2.9 2.2 99 0.0 SSW 19 28 10 15 1023.4 1024.2 2.6
19/07:30am 2.0 -3.9 1.9 99 0.0 SSW 22 33 12 18 1022.9 1023.6 2.6
19/07:00am 1.9 -4.0 1.8 99 0.0 SW 22 32 12 17 1022.2 1023.0 2.6
19/06:54am 1.9 -4.0 1.8 99 0.0 SW 22 32 12 17 1022.1 1022.9 2.6
19/06:30am 1.9 -4.4 1.8 99 0.0 SW 24 33 13 18 1021.6 1022.4 2.6
19/06:22am 2.0 -4.2 1.9 99 0.0 SW 24 30 13 16 1021.5 1022.3 2.6
19/06:00am 1.9 -3.6 1.8 99 0.0 SW 20 26 11 14 1021.3 1022.0 2.6
19/05:30am 2.2 -3.6 2.1 99 0.0 SW 22 33 12 18 1020.9 1021.6 2.4
19/05:20am 2.2 -4.8 2.1 99 0.0 SW 28 39 15 21 1020.8 1021.5 2.4
19/05:00am 2.2 -4.0 2.1 99 0.0 SW 24 32 13 17 1020.6 1021.3 2.4
19/04:44am 2.3 -4.3 2.2 99 0.0 SW 26 35 14 19 1020.3 1021.1 2.4
19/04:41am 2.2 -4.0 2.1 99 0.0 SW 24 33 13 18 1020.3 1021.1 2.4
19/04:30am 2.1 -3.8 2.0 99 0.0 SW 22 30 12 16 1020.1 1020.9 2.4
19/04:11am 2.2 -3.6 2.1 99 0.0 SW 22 32 12 17 1020.0 1020.8 2.4
19/04:00am 2.1 -3.8 2.0 99 0.0 SW 22 32 12 17 1020.0 1020.8 2.4
19/03:30am 2.3 -3.9 2.2 99 0.0 SW 24 33 13 18 1019.8 1020.6 2.4
19/03:00am 2.4 -4.2 2.3 99 0.0 SW 26 33 14 18 1019.8 1020.6 2.4
19/02:30am 2.8 -3.7 2.7 99 0.0 SW 26 33 14 18 1019.8 1020.6 2.2
19/02:09am 2.7 -3.4 2.6 99 0.0 SW 24 33 13 18 1019.6 1020.3 1.8
19/02:06am 2.7 -3.0 2.6 99 0.0 SW 22 33 12 18 1019.6 1020.3 1.8
19/02:05am 2.6 -3.2 2.5 99 0.0 SW 22 30 12 16 1019.6 1020.3 1.8
19/02:00am 2.5 -3.3 2.4 99 0.0 SW 22 30 12 16 1019.6 1020.3 1.8
19/01:30am 2.9 -4.0 2.8 99 0.0 SW 28 39 15 21 1019.6 1020.3 1.4
19/01:18am 2.8 -3.7 2.7 99 0.0 SSW 26 35 14 19 1019.5 1020.2 1.2
19/01:13am 2.8 -3.7 2.7 99 0.0 SSW 26 39 14 21 1019.5 1020.2 1.2
19/01:00am 2.7 -4.6 2.6 99 0.0 SSW 30 44 16 24 1019.5 1020.2 1.2
19/12:51am 2.9 -4.0 2.8 99 0.0 SSW 28 43 15 23 1019.4 1020.1 1.0
19/12:31am 3.3 -3.5 3.2 99 0.0 SW 28 48 15 26 1019.2 1019.9 0.8
19/12:30am 3.3 -3.5 3.2 99 0.0 SW 28 39 15 21 1019.2 1019.9 0.8
19/12:00am 3.5 -2.5 3.2 98 0.1 SSW 24 35 13 19 1019.1 1019.8 0.8
 
Date/Time
EST
Temp
°C
App
Temp
°C
Dew
Point
°C
Rel
Hum
%
Delta-T
°C
Wind Press
QNH
hPa
Press
MSL
hPa
Rain since
9am
mm
Dir  Spd
km/h
Gust
km/h
Spd
kts
Gust
kts
18/11:47pm 3.5 -3.3 3.1 97 0.2 SW 28 39 15 21 1019.1 1019.8 0.8
18/11:30pm 3.7 -3.1 3.1 96 0.3 SW 28 39 15 21 1019.0 1019.7 0.8
18/11:00pm 3.6 -2.9 2.9 95 0.3 SW 26 33 14 18 1018.8 1019.5 0.6
18/10:30pm 3.7 -3.2 2.7 93 0.4 SW 28 46 15 25 1018.6 1019.3 0.6
18/10:29pm 3.7 -3.2 2.8 94 0.4 SW 28 46 15 25 1018.6 1019.3 0.6
18/10:00pm 3.9 -2.5 3.0 94 0.4 SW 26 37 14 20 1018.3 1019.1 0.6
18/09:30pm 4.0 -2.4 3.0 93 0.4 SW 26 33 14 18 1017.9 1018.6 0.6
18/09:00pm 4.1 -1.9 3.4 95 0.3 SW 24 35 13 19 1017.9 1018.6 0.6
18/08:30pm 4.1 -2.7 3.2 94 0.4 SW 28 39 15 21 1017.5 1018.2 0.6
18/08:00pm 3.9 -2.9 3.0 94 0.4 SW 28 41 15 22 1017.1 1017.8 0.6
18/07:53pm 3.9 -2.2 3.0 94 0.4 SW 24 37 13 20 1017.1 1017.8 0.6
18/07:35pm 4.1 -1.9 3.2 94 0.4 SW 24 37 13 20 1016.9 1017.6 0.6
18/07:30pm 4.2 -1.8 3.3 94 0.4 SW 24 37 13 20 1016.7 1017.4 0.6
18/07:03pm 4.3 -1.7 3.4 94 0.4 SW 24 32 13 17 1016.2 1016.9 0.6
18/07:00pm 4.3 -1.3 3.6 95 0.3 SW 22 30 12 16 1016.2 1016.9 0.6
18/06:30pm 4.2 -1.0 3.5 95 0.3 SW 20 30 11 16 1015.7 1016.4 0.6
18/06:11pm 4.2 -0.5 3.3 94 0.4 SW 17 24 9 13 1015.6 1016.3 0.6
18/06:00pm 4.4 -0.7 3.1 91 0.5 WSW 19 32 10 17 1015.3 1016.0 0.6
18/05:30pm 4.8 -0.9 2.8 87 0.8 WSW 22 33 12 18 1014.7 1015.3 0.6
18/05:00pm 5.0 -1.4 3.0 87 0.8 SW 26 44 14 24 1014.3 1015.0 0.6
18/04:30pm 5.4 -0.3 2.8 83 1.1 SW 22 32 12 17 1014.0 1014.7 0.6
18/04:00pm 5.4 -1.9 2.6 82 1.2 SW 30 44 16 24 1013.4 1014.1 0.6
18/03:32pm 5.5 -1.4 2.7 82 1.2 WSW 28 46 15 25 1013.0 1013.6 0.6
18/03:30pm 5.4 -1.8 2.8 83 1.1 WSW 30 46 16 25 1013.0 1013.6 0.6
18/03:05pm 5.8 -1.0 3.0 82 1.2 WSW 28 46 15 25 1012.6 1013.2 0.6
18/03:00pm 5.7 -1.9 3.0 83 1.2 WSW 32 48 17 26 1012.5 1013.1 0.6
18/02:59pm 5.7 -1.9 3.0 83 1.2 WSW 32 48 17 26 1012.5 1013.1 0.6
18/02:30pm 5.8 -1.2 4.1 89 0.7 WSW 30 48 16 26 1012.0 1012.7 0.6
18/02:26pm 5.6 -1.5 3.8 88 0.8 WSW 30 48 16 26 1011.8 1012.5 0.6
18/02:00pm 4.1 -3.4 3.5 96 0.3 WSW 32 48 17 26 1011.4 1012.0 0.6
18/01:55pm 4.0 -3.7 3.4 96 0.3 WSW 33 48 18 26 1011.3 1011.9 0.6
18/01:42pm 3.9 -5.4 2.7 92 0.5 WSW 41 61 22 33 1011.3 1011.9 0.6
18/01:30pm 5.8 -2.8 2.8 81 1.3 WSW 37 57 20 31 1011.1 1011.7 0.0
18/01:02pm 6.1 -2.2 2.4 77 1.6 WSW 35 54 19 29 1010.8 1011.4 0.0
18/01:00pm 6.3 -1.9 2.8 78 1.5 W 35 46 19 25 1010.9 1011.5 0.0
18/12:30pm 6.7 -0.3 2.2 73 1.9 WSW 28 41 15 22 1010.7 1011.3 0.0
18/12:00pm 6.5 0.5 3.1 79 1.5 W 24 33 13 18 1010.8 1011.4 0.0
18/11:30am 6.3 -0.6 2.4 76 1.7 WSW 28 46 15 25 1010.7 1011.3 0.0
18/11:00am 6.5 -1.5 1.8 72 2.0 WSW 33 52 18 28 1010.2 1010.9 0.0
18/10:49am 6.8 0.0 2.9 76 1.7 WSW 28 46 15 25 1010.3 1011.0 0.0
18/10:30am 6.2 -1.1 2.5 77 1.6 W 30 43 16 23 1009.9 1010.5 0.0
18/10:00am 6.2 -0.8 2.1 75 1.7 W 28 46 15 25 1009.6 1010.2 0.0
18/09:58am 6.4 -0.5 2.5 76 1.7 W 28 46 15 25 1009.5 1010.1 0.0
18/09:30am 5.1 -2.6 2.1 81 1.2 W 32 44 17 24 1009.3 1009.9 0.0
18/09:00am 4.9 -3.4 1.9 81 1.2 WSW 35 56 19 30 1009.2 1009.8 4.6
18/08:52am 5.2 -2.2 2.0 80 1.3 W 30 56 16 30 1009.0 1009.6 4.6
18/08:30am 5.0 -2.0 2.0 81 1.2 WSW 28 44 15 24 1008.7 1009.3 4.6
18/08:20am 5.2 -1.8 2.0 80 1.3 W 28 46 15 25 1008.5 1009.0 4.6
18/08:00am 4.7 -2.0 1.6 80 1.3 W 26 39 14 21 1008.0 1008.6 4.6
18/07:30am 4.4 -1.9 1.6 82 1.1 W 24 32 13 17 1007.8 1008.4 4.6
18/07:00am 3.9 -2.4 1.3 83 1.1 W 24 33 13 18 1007.1 1007.7 4.6
18/06:30am 4.0 -1.5 1.9 86 0.9 W 20 28 11 15 1006.9 1007.4 4.6
18/06:00am 3.8 -0.7 2.0 88 0.7 WNW 15 24 8 13 1006.2 1006.8 4.6
18/05:30am 4.3 -0.6 2.3 87 0.8 WNW 17 26 9 14 1006.1 1006.7 4.6
18/05:00am 4.4 -0.5 2.3 86 0.9 WNW 17 24 9 13 1005.5 1006.1 4.6
18/04:30am 4.5 -0.9 2.4 86 0.9 WNW 20 32 11 17 1005.3 1005.9 4.6
18/04:00am 4.4 -0.8 2.4 87 0.8 WNW 19 26 10 14 1004.9 1005.4 4.6
18/03:30am 4.4 -1.4 2.4 87 0.8 WNW 22 33 12 18 1004.5 1005.0 4.6
18/03:27am 4.4 -1.3 2.6 88 0.8 WNW 22 37 12 20 1004.5 1005.0 4.6
18/03:00am 4.1 -2.0 2.6 90 0.6 NW 24 33 13 18 1004.4 1004.9 4.6
18/02:30am 4.4 -0.9 2.8 89 0.7 WNW 20 28 11 15 1004.7 1005.2 4.6
18/02:13am 4.4 -0.9 2.9 90 0.6 WNW 20 28 11 15 1004.8 1005.3 4.6
18/02:00am 4.2 -1.5 2.9 91 0.5 NW 22 32 12 17 1004.8 1005.3 4.6
18/01:46am 4.1 -1.0 2.9 92 0.5 NNW 19 28 10 15 1004.9 1005.4 4.6
18/01:30am 4.1 -0.6 2.9 92 0.5 NNW 17 22 9 12 1004.8 1005.3 4.6
18/01:00am 3.6 -1.8 2.4 92 0.5 NNW 20 28 11 15 1004.8 1005.3 4.6
18/12:30am 4.1 -1.0 2.8 91 0.5 NW 19 28 10 15 1004.7 1005.2 4.6
18/12:00am 4.5 -0.1 3.5 93 0.4 NW 17 20 9 11 1004.5 1005.0 4.6
 
Date/Time
EST
Temp
°C
App
Temp
°C
Dew
Point
°C
Rel
Hum
%
Delta-T
°C
Wind Press
QNH
hPa
Press
MSL
hPa
Rain since
9am
mm
Dir  Spd
km/h
Gust
km/h
Spd
kts
Gust
kts
17/11:43pm 4.6 -0.6 3.3 91 0.6 NW 20 30 11 16 1004.4 1004.9 4.6
17/11:30pm 4.5 -1.5 3.2 91 0.6 NW 24 37 13 20 1004.4 1004.9 4.6
17/11:10pm 5.1 -1.6 3.4 89 0.7 NW 28 48 15 26 1003.9 1004.5 4.6
17/11:00pm 5.0 -0.8 4.3 95 0.3 NNW 24 30 13 16 1004.0 1004.6 4.6
17/10:57pm 4.9 -0.9 4.3 96 0.3 NNW 24 32 13 17 1003.8 1004.4 4.6
17/10:30pm 4.1 -1.1 3.5 96 0.3 NNW 20 28 11 15 1004.2 1004.8 4.6
17/10:12pm 4.4 -1.1 3.8 96 0.3 NNW 22 32 12 17 1004.2 1004.8 4.6
17/10:00pm 3.7 -3.1 3.1 96 0.3 NNW 28 32 15 17 1004.2 1004.8 4.6
17/09:30pm 3.3 -3.6 2.6 95 0.3 NW 28 35 15 19 1004.0 1004.6 4.6
17/09:00pm 3.7 -3.6 2.5 92 0.5 NW 30 48 16 26 1004.1 1004.7 4.6
17/08:56pm 3.9 -3.4 2.6 91 0.5 NW 30 48 16 26 1004.2 1004.8 4.6
17/08:31pm 4.1 -1.9 3.4 95 0.3 NW 24 32 13 17 1004.0 1004.6 4.6
17/08:30pm 4.1 -1.9 3.5 96 0.3 NW 24 32 13 17 1004.1 1004.7 4.6
17/08:28pm 3.9 -1.7 3.5 97 0.2 NW 22 32 12 17 1004.1 1004.7 4.6
17/08:12pm 3.6 -2.8 3.0 96 0.3 WSW 26 43 14 23 1004.6 1005.1 4.4
17/08:04pm 4.7 -0.3 3.7 93 0.4 W 19 43 10 23 1004.9 1005.4 2.6
17/08:00pm 5.6 0.8 4.7 94 0.4 WNW 19 22 10 12 1004.9 1005.4 1.6
17/07:46pm 5.7 0.7 4.5 92 0.5 NW 20 32 11 17 1004.6 1005.1 1.4
17/07:30pm 5.4 0.0 4.4 93 0.4 NW 22 35 12 19 1003.9 1004.5 1.4
17/07:00pm 5.4 0.4 4.4 93 0.4 NW 20 30 11 16 1003.7 1004.3 1.4
17/06:30pm 5.2 -1.5 3.7 90 0.6 NNW 28 39 15 21 1003.0 1003.5 1.4
17/06:00pm 4.8 -1.2 3.6 92 0.5 NNW 24 30 13 16 1002.8 1003.3 1.4
17/05:36pm 5.5 0.2 4.8 95 0.3 NW 22 30 12 16 1002.7 1003.2 1.4
17/05:30pm 5.5 0.1 4.3 92 0.5 NW 22 33 12 18 1002.8 1003.3 1.4
17/05:15pm 6.4 -1.1 3.6 82 1.2 WNW 32 59 17 32 1002.9 1003.4 0.8
17/05:12pm 7.1 0.4 3.9 80 1.4 WNW 28 50 15 27 1002.8 1003.3 0.6
17/05:00pm 8.2 1.4 3.1 70 2.3 WNW 28 43 15 23 1002.2 1002.8 0.4
17/04:30pm 8.4 0.1 2.4 66 2.6 NW 35 56 19 30 1001.2 1001.7 0.4
17/04:00pm 9.2 1.6 2.8 64 2.8 WNW 32 54 17 29 1001.7 1002.2 0.4
17/03:31pm 10.0 3.1 4.6 69 2.5 NW 30 48 16 26 1001.5 1002.0 0.4
17/03:30pm 10.1 3.6 4.9 70 2.4 NW 28 41 15 22 1001.6 1002.1 0.4
17/03:13pm 10.4 3.9 4.8 68 2.6 NW 28 46 15 25 1001.5 1002.0 0.4
17/03:00pm 11.5 5.9 5.2 65 3.0 WNW 24 35 13 19 1001.4 1001.9 0.4
17/02:46pm 11.0 4.2 5.1 67 2.8 NW 30 50 16 27 1001.2 1001.7 0.4
17/02:30pm 11.0 5.6 6.2 72 2.3 WNW 24 39 13 21 1001.4 1001.9 0.4
17/02:01pm 11.1 4.3 5.0 66 2.9 WNW 30 56 16 30 1001.3 1001.8 0.4
17/02:00pm 11.0 4.2 4.9 66 2.9 WNW 30 43 16 23 1001.4 1001.9 0.4
17/01:30pm 10.2 3.0 5.2 71 2.3 WNW 32 56 17 30 1001.5 1002.0 0.4
17/01:25pm 9.7 2.7 4.3 69 2.5 WNW 30 56 16 30 1001.5 1002.0 0.4
17/01:00pm 10.2 3.5 5.6 73 2.2 NW 30 41 16 22 1001.7 1002.2 0.4
17/12:42pm 9.7 2.5 4.9 72 2.2 NW 32 54 17 29 1001.6 1002.1 0.4
17/12:30pm 9.7 2.5 4.9 72 2.2 WNW 32 46 17 25 1001.9 1002.4 0.4
17/12:06pm 9.2 1.4 5.0 75 1.9 NW 35 59 19 32 1001.8 1002.3 0.4
17/12:00pm 9.5 1.9 5.7 77 1.8 NW 35 52 19 28 1001.7 1002.2 0.4
17/11:33am 9.1 1.9 5.7 79 1.6 NW 33 52 18 28 1001.7 1002.2 0.4
17/11:30am 9.1 1.5 5.7 79 1.6 NW 35 50 19 27 1001.7 1002.2 0.4
17/11:05am 8.8 2.6 6.3 84 1.2 WNW 28 52 15 28 1002.1 1002.7 0.4
17/11:00am 7.7 2.0 5.0 83 1.2 WNW 24 41 13 22 1002.0 1002.5 0.4
17/10:40am 7.5 1.2 5.5 87 0.9 NW 28 46 15 25 1002.2 1002.8 0.4
17/10:30am 7.1 -0.3 5.1 87 0.9 NW 33 46 18 25 1002.2 1002.8 0.4
17/10:00am 6.2 -1.2 5.0 92 0.5 NNW 33 43 18 23 1001.5 1002.0 0.4
17/09:36am 5.4 -1.1 4.8 96 0.3 NW 28 48 15 26 1002.1 1002.7 0.4
17/09:30am 5.5 -0.2 4.8 95 0.3 WNW 24 35 13 19 1002.7 1003.2 0.2
17/09:00am 5.6 0.8 4.4 92 0.5 WNW 19 26 10 14 1002.9 1003.4 0.4
17/08:30am 5.5 0.5 4.5 93 0.4 WNW 20 30 11 16 1002.8 1003.3 0.2
17/08:22am 5.6 0.6 4.7 94 0.4 W 20 26 11 14 1002.8 1003.3 0.2
17/08:00am 6.2 1.8 4.8 91 0.6 WNW 17 24 9 13 1002.8 1003.3 0.0
17/07:30am 7.3 1.6 6.6 95 0.3 NNW 26 33 14 18 1002.4 1002.9 0.0
17/07:00am 7.4 2.7 6.2 92 0.6 NNW 20 30 11 16 1002.2 1002.8 0.0
17/06:30am 6.9 2.6 6.8 99 0.0 N 19 24 10 13 1002.0 1002.5 0.0
17/06:00am 7.0 2.1 6.9 99 0.0 N 22 30 12 16 1002.0 1002.5 0.0
17/05:30am 7.0 1.0 6.9 99 0.0 N 28 35 15 19 1002.0 1002.5 0.0
17/05:06am 7.2 2.6 6.5 95 0.3 NNW 20 24 11 13 1002.1 1002.7 0.0
17/05:00am 7.3 2.2 6.1 92 0.6 NNW 22 37 12 20 1002.1 1002.7 0.0
17/04:48am 7.5 0.3 6.0 90 0.7 NNW 33 48 18 26 1002.1 1002.7 0.0
17/04:30am 7.5 -0.1 5.8 89 0.8 NNW 35 46 19 25 1001.6 1002.1 0.0
17/04:00am 7.4 1.5 5.7 89 0.8 NNW 26 37 14 20 1002.0 1002.5 0.0
17/03:51am 7.5 1.2 5.8 89 0.8 NW 28 39 15 21 1002.2 1002.8 0.0
17/03:33am 7.6 1.3 5.6 87 0.9 NW 28 46 15 25 1002.2 1002.8 0.0
17/03:30am 7.6 2.0 5.6 87 0.9 NW 24 39 13 21 1002.1 1002.7 0.0
17/03:00am 7.7 1.7 5.3 85 1.1 NW 26 39 14 21 1002.2 1002.8 0.0
17/02:39am 7.8 -0.2 5.6 86 1.0 NW 37 56 20 30 1001.7 1002.2 0.0

Other Formats:

Comma delimited format used in spreadsheet applications
http://www.bom.gov.au/fwo/IDV60801/IDV60801.94860.axf

JavaScript Object Notation format (JSON) in row-major order
http://www.bom.gov.au/fwo/IDV60801/IDV60801.94860.json